Time;durP1;ratioP1;P1;durP2;ratioP2;P2;SDS_P1;SDS_P2;PMS_P1;PMS_P2;Temp;Humidity;BMP_temperature;BMP_pressure;BME280_temperature;BME280_humidity;BME280_pressure;Samples;Min_cycle;Max_cycle;Signal;HPM_P1;HPM_P2
2022/06/11 00:01:08;;;;;;;7.70;1.40;;;21.80;89.70;;;;;;5050731;28;20048;-69
2022/06/11 00:03:35;;;;;;;2.47;1.60;;;21.80;89.90;;;;;;5034063;28;20497;-69
2022/06/11 00:06:01;;;;;;;3.95;1.40;;;21.70;90.00;;;;;;5052611;28;20111;-69
2022/06/11 00:08:27;;;;;;;3.13;1.17;;;21.70;90.10;;;;;;5052877;28;20021;-68
2022/06/11 00:10:53;;;;;;;2.03;1.23;;;21.70;90.20;;;;;;5053078;28;20039;-69
2022/06/11 00:13:22;;;;;;;3.50;1.08;;;21.70;90.20;;;;;;5053028;28;20096;-69
2022/06/11 00:15:49;;;;;;;1.92;1.27;;;21.70;90.20;;;;;;5052728;28;20032;-69
2022/06/11 00:18:15;;;;;;;1.73;1.02;;;21.70;90.10;;;;;;5052865;28;20033;-68
2022/06/11 00:20:40;;;;;;;3.75;1.40;;;21.70;90.10;;;;;;5053090;28;20028;-69
2022/06/11 00:23:06;;;;;;;1.45;0.95;;;21.60;90.10;;;;;;5052839;28;20021;-69
2022/06/11 00:25:32;;;;;;;2.10;0.88;;;21.60;90.00;;;;;;5053003;28;20032;-69
2022/06/11 00:27:58;;;;;;;3.88;1.13;;;21.60;90.00;;;;;;5052946;28;20100;-69
2022/06/11 00:30:25;;;;;;;2.35;1.13;;;21.60;90.00;;;;;;5053083;28;20056;-69
2022/06/11 00:32:50;;;;;;;1.88;0.90;;;21.60;90.00;;;;;;5052941;28;20489;-69
2022/06/11 00:35:16;;;;;;;3.15;1.00;;;21.60;89.90;;;;;;5053043;28;20096;-69
2022/06/11 00:37:43;;;;;;;2.05;0.90;;;21.60;89.60;;;;;;5052644;28;20099;-68
2022/06/11 00:40:11;;;;;;;3.65;0.85;;;21.60;89.20;;;;;;5052671;28;20021;-69
2022/06/11 00:42:37;;;;;;;2.40;0.88;;;21.50;88.70;;;;;;5052869;28;20025;-69
2022/06/11 00:45:21;;;;;;;2.78;0.75;;;21.50;88.40;;;;;;5052879;28;20029;-69
2022/06/11 00:47:55;;;;;;;5.25;0.90;;;21.50;88.00;;;;;;5034946;28;20082;-68
2022/06/11 00:50:37;;;;;;;3.72;1.00;;;21.50;87.70;;;;;;5051901;28;20025;-68
2022/06/11 00:53:03;;;;;;;2.78;0.77;;;21.50;87.60;;;;;;5052576;28;20036;-68
2022/06/11 00:55:36;;;;;;;2.83;0.70;;;21.50;87.40;;;;;;5052836;28;20036;-68
2022/06/11 00:58:08;;;;;;;2.40;0.73;;;21.50;87.30;;;;;;5055878;28;20474;-68
2022/06/11 01:00:38;;;;;;;2.00;0.60;;;21.50;87.00;;;;;;5056468;28;20021;-68
2022/06/11 01:03:05;;;;;;;2.60;0.77;;;21.50;87.20;;;;;;5056562;28;20490;-68
2022/06/11 01:05:35;;;;;;;2.95;0.90;;;21.50;87.10;;;;;;5056441;28;20028;-68
2022/06/11 01:08:09;;;;;;;3.05;0.98;;;21.50;87.10;;;;;;5056678;28;20022;-68
2022/06/11 01:10:54;;;;;;;4.40;0.60;;;21.50;87.00;;;;;;5056500;28;20132;-68
2022/06/11 01:13:46;;;;;;;4.13;0.90;;;21.50;87.10;;;;;;5056441;28;20040;-68
2022/06/11 01:16:18;;;;;;;2.10;0.75;;;21.40;87.10;;;;;;5056288;28;20122;-69
2022/06/11 01:19:15;;;;;;;3.03;1.45;;;21.40;87.10;;;;;;5056433;28;20040;-68
2022/06/11 01:22:20;;;;;;;2.35;0.82;;;21.40;87.10;;;;;;5055879;28;20428;-68
2022/06/11 01:24:55;;;;;;;2.25;0.50;;;21.40;87.30;;;;;;5056499;28;20039;-68
2022/06/11 01:27:41;;;;;;;2.88;0.80;;;21.40;87.30;;;;;;5053775;28;20074;-68
2022/06/11 01:30:25;;;;;;;3.03;0.75;;;21.40;87.40;;;;;;5053617;28;20038;-70
2022/06/11 01:33:02;;;;;;;2.40;0.43;;;21.40;87.40;;;;;;5055574;28;20024;-69
2022/06/11 01:35:51;;;;;;;1.35;0.60;;;21.40;87.40;;;;;;5055406;28;20033;-68
2022/06/11 01:38:32;;;;;;;4.38;0.70;;;21.40;88.10;;;;;;5055368;28;20057;-68
2022/06/11 01:41:46;;;;;;;4.63;1.10;;;21.30;87.50;;;;;;5038145;28;20441;-68
2022/06/11 01:44:19;;;;;;;3.03;0.60;;;21.30;87.60;;;;;;5037262;28;20401;-69
2022/06/11 01:46:48;;;;;;;4.07;0.90;;;21.30;87.60;;;;;;5056001;28;20146;-68
2022/06/11 01:49:23;;;;;;;4.18;1.00;;;21.30;87.60;;;;;;5055471;28;20025;-68
2022/06/11 01:52:22;;;;;;;3.35;1.33;;;21.30;87.60;;;;;;5038088;28;20111;-68
2022/06/11 01:55:15;;;;;;;2.88;0.63;;;21.30;87.70;;;;;;5055856;28;20025;-68
2022/06/11 01:58:18;;;;;;;2.85;0.73;;;21.30;87.80;;;;;;5055673;28;20485;-69
2022/06/11 02:01:15;;;;;;;3.72;1.10;;;21.30;87.80;;;;;;5055658;28;20377;-68
2022/06/11 02:03:51;;;;;;;2.58;0.95;;;21.30;87.80;;;;;;5055409;28;20025;-69
2022/06/11 02:06:35;;;;;;;4.00;0.90;;;21.20;87.80;;;;;;5055188;28;20028;-69
2022/06/11 02:09:22;;;;;;;5.97;0.82;;;21.20;87.80;;;;;;5054611;28;20367;-68
2022/06/11 02:12:01;;;;;;;3.38;0.80;;;21.20;87.80;;;;;;5055508;28;20033;-69
2022/06/11 02:14:44;;;;;;;2.13;0.63;;;21.20;87.90;;;;;;5055126;28;20017;-69
2022/06/11 02:17:31;;;;;;;3.40;0.80;;;21.10;87.90;;;;;;5055235;28;20501;-69
2022/06/11 02:20:22;;;;;;;3.28;0.80;;;21.10;88.00;;;;;;5055343;28;20063;-71
2022/06/11 02:23:00;;;;;;;3.55;0.88;;;21.10;87.90;;;;;;5055386;28;20029;-69
2022/06/11 02:25:39;;;;;;;3.03;0.80;;;21.20;87.90;;;;;;5055068;28;20045;-69
2022/06/11 02:28:10;;;;;;;2.88;1.00;;;21.10;87.90;;;;;;5054968;28;20021;-69
2022/06/11 02:30:37;;;;;;;2.20;0.73;;;21.10;88.10;;;;;;5055110;28;20119;-69
2022/06/11 02:33:07;;;;;;;2.08;0.80;;;21.10;88.00;;;;;;5054766;28;20036;-69
2022/06/11 02:35:38;;;;;;;3.42;0.88;;;21.00;88.20;;;;;;5054808;28;20132;-69
2022/06/11 02:38:06;;;;;;;3.47;0.98;;;21.00;88.30;;;;;;5055021;28;20025;-70
2022/06/11 02:40:48;;;;;;;2.65;1.00;;;21.00;88.40;;;;;;5054953;28;20033;-69
2022/06/11 02:43:13;;;;;;;4.22;1.00;;;21.00;88.50;;;;;;5054919;28;20025;-69
2022/06/11 02:45:39;;;;;;;1.92;0.65;;;21.00;88.50;;;;;;5054557;28;20017;-70
2022/06/11 02:48:05;;;;;;;3.67;1.02;;;21.00;88.50;;;;;;5054503;28;20063;-69
2022/06/11 02:50:34;;;;;;;2.65;0.88;;;21.00;88.50;;;;;;5054599;28;20477;-70
2022/06/11 02:53:03;;;;;;;2.63;0.80;;;21.00;88.60;;;;;;5054786;28;20103;-69
2022/06/11 02:55:30;;;;;;;6.40;1.50;;;21.00;88.30;;;;;;5053942;28;20025;-69
2022/06/11 02:57:56;;;;;;;4.55;0.95;;;21.00;87.60;;;;;;5054694;28;20033;-69
2022/06/11 03:00:26;;;;;;;5.35;1.20;;;21.00;86.80;;;;;;5054392;28;20025;-69
2022/06/11 03:02:52;;;;;;;7.70;1.05;;;21.00;86.40;;;;;;5054274;28;20032;-69
2022/06/11 03:05:29;;;;;;;4.75;1.42;;;20.90;86.00;;;;;;5054085;28;20021;-69
2022/06/11 03:07:55;;;;;;;5.07;1.23;;;20.90;85.20;;;;;;5054484;28;20021;-69
2022/06/11 03:10:23;;;;;;;6.65;1.13;;;20.90;84.40;;;;;;5054025;28;20029;-69
2022/06/11 03:12:50;;;;;;;5.05;1.80;;;20.90;83.60;;;;;;5054367;28;20036;-69
2022/06/11 03:15:17;;;;;;;4.82;1.60;;;20.90;82.50;;;;;;5053825;28;20044;-69
2022/06/11 03:17:44;;;;;;;6.05;1.30;;;20.90;81.70;;;;;;5054221;28;20075;-69
2022/06/11 03:20:12;;;;;;;5.80;1.55;;;20.90;81.00;;;;;;5052662;28;20025;-69
2022/06/11 03:22:37;;;;;;;6.35;1.42;;;20.80;80.30;;;;;;5053949;28;20032;-70
2022/06/11 03:25:04;;;;;;;5.35;1.80;;;20.80;79.80;;;;;;5053891;28;20029;-69
2022/06/11 03:27:30;;;;;;;5.78;1.55;;;20.80;79.50;;;;;;5036063;28;20017;-69
2022/06/11 03:29:56;;;;;;;7.53;1.73;;;20.80;79.40;;;;;;5053325;28;20031;-69
2022/06/11 03:32:22;;;;;;;8.45;1.98;;;20.70;79.10;;;;;;5053792;28;20025;-69
2022/06/11 03:34:47;;;;;;;6.80;1.67;;;20.70;79.10;;;;;;5053781;28;20029;-69
2022/06/11 03:37:14;;;;;;;7.85;1.85;;;20.70;79.40;;;;;;5053841;28;20041;-69
2022/06/11 03:39:40;;;;;;;8.52;1.98;;;20.70;78.70;;;;;;5052807;28;20461;-69
2022/06/11 03:42:06;;;;;;;10.85;2.47;;;20.70;78.60;;;;;;5053789;28;20027;-70
2022/06/11 03:44:32;;;;;;;7.45;1.40;;;20.70;78.30;;;;;;5053578;28;20025;-69
2022/06/11 03:46:57;;;;;;;5.95;1.95;;;20.70;78.40;;;;;;5053443;28;20043;-70
2022/06/11 03:49:24;;;;;;;8.88;2.53;;;20.70;78.10;;;;;;5053881;28;20025;-69
2022/06/11 03:51:50;;;;;;;7.50;1.75;;;20.60;77.70;;;;;;5053439;28;20040;-69
2022/06/11 03:54:16;;;;;;;9.05;2.05;;;20.60;77.80;;;;;;5053329;28;20017;-69
2022/06/11 03:56:44;;;;;;;10.88;2.22;;;20.60;77.80;;;;;;5053399;28;20021;-69
2022/06/11 03:59:10;;;;;;;8.18;1.92;;;20.60;78.00;;;;;;5053191;28;20112;-70
2022/06/11 04:01:37;;;;;;;7.13;2.10;;;20.60;77.80;;;;;;5053031;28;20443;-69
2022/06/11 04:04:08;;;;;;;8.35;1.88;;;20.50;77.70;;;;;;5053640;28;20108;-69
2022/06/11 04:06:38;;;;;;;8.25;2.47;;;20.60;77.80;;;;;;5053347;28;20094;-69
2022/06/11 04:09:08;;;;;;;6.70;1.80;;;20.50;77.70;;;;;;5053457;28;20032;-70
2022/06/11 04:11:34;;;;;;;7.50;1.85;;;20.50;77.60;;;;;;5053184;28;20068;-69
2022/06/11 04:14:00;;;;;;;6.68;2.05;;;20.50;77.70;;;;;;5053043;28;20017;-70
2022/06/11 04:16:51;;;;;;;6.55;2.28;;;20.50;77.60;;;;;;5052864;28;20041;-70
2022/06/11 04:19:24;;;;;;;13.18;2.40;;;20.50;77.90;;;;;;5053016;28;20075;-69
2022/06/11 04:21:50;;;;;;;9.10;2.22;;;20.50;77.70;;;;;;5053076;28;20040;-70
2022/06/11 04:24:17;;;;;;;11.20;2.35;;;20.50;77.70;;;;;;5053163;28;20021;-69
2022/06/11 04:26:47;;;;;;;11.65;2.53;;;20.50;77.80;;;;;;5052980;28;20024;-69
2022/06/11 04:29:16;;;;;;;11.05;2.45;;;20.50;77.70;;;;;;5052693;28;20359;-69
2022/06/11 04:31:42;;;;;;;11.43;2.22;;;20.50;77.70;;;;;;5052451;28;20104;-68
2022/06/11 04:34:08;;;;;;;6.30;1.75;;;20.50;77.80;;;;;;5053095;28;20025;-69
2022/06/11 04:36:34;;;;;;;7.65;1.98;;;20.50;77.70;;;;;;5052793;28;20035;-68
2022/06/11 04:39:00;;;;;;;8.88;2.00;;;20.40;78.00;;;;;;5052475;28;20474;-69
2022/06/11 04:41:27;;;;;;;8.07;2.13;;;20.40;78.00;;;;;;5052747;28;20029;-69
2022/06/11 04:43:53;;;;;;;7.50;2.20;;;20.40;78.40;;;;;;5052748;28;20367;-68
2022/06/11 04:46:19;;;;;;;7.35;2.10;;;20.50;78.50;;;;;;5052644;28;20104;-69
2022/06/11 04:48:45;;;;;;;11.68;2.38;;;20.50;77.60;;;;;;5053379;28;20052;-69
2022/06/11 04:51:11;;;;;;;10.88;2.45;;;20.50;77.40;;;;;;5052565;28;20025;-68
2022/06/11 04:53:37;;;;;;;9.95;2.30;;;20.50;77.40;;;;;;5052490;28;20029;-69
2022/06/11 04:56:04;;;;;;;12.07;2.22;;;20.50;77.30;;;;;;5052769;28;20116;-68
2022/06/11 04:58:29;;;;;;;9.45;2.85;;;20.50;77.40;;;;;;5052334;28;20108;-68
2022/06/11 05:00:55;;;;;;;11.95;2.78;;;20.40;77.60;;;;;;5049754;28;20060;-69
2022/06/11 05:03:21;;;;;;;9.48;2.42;;;20.40;77.50;;;;;;5052171;28;20029;-68
2022/06/11 05:05:47;;;;;;;9.02;2.42;;;20.40;77.70;;;;;;5052594;28;20359;-68
2022/06/11 05:08:14;;;;;;;10.50;2.30;;;20.40;78.00;;;;;;5050367;28;20031;-68
2022/06/11 05:10:41;;;;;;;12.95;2.92;;;20.40;77.90;;;;;;5052468;28;20033;-69
2022/06/11 05:13:09;;;;;;;11.88;2.42;;;20.40;77.90;;;;;;5052172;28;20111;-69
2022/06/11 05:15:37;;;;;;;14.40;3.45;;;20.50;78.10;;;;;;5052116;28;20062;-69
2022/06/11 05:18:03;;;;;;;8.95;2.97;;;20.50;78.10;;;;;;5052269;28;20083;-69
2022/06/11 05:20:29;;;;;;;12.02;2.70;;;20.50;78.10;;;;;;5052758;28;20029;-68
2022/06/11 05:22:55;;;;;;;9.88;2.65;;;20.50;77.80;;;;;;5052509;28;20021;-69
2022/06/11 05:25:20;;;;;;;10.30;2.85;;;20.50;78.10;;;;;;5051952;28;20107;-69
2022/06/11 05:27:47;;;;;;;12.32;2.67;;;20.50;78.40;;;;;;5052107;28;20032;-69
2022/06/11 05:30:18;;;;;;;10.27;2.50;;;20.50;78.70;;;;;;5052410;28;20025;-69
2022/06/11 05:32:44;;;;;;;15.18;3.10;;;20.50;79.70;;;;;;5052473;28;20107;-69
2022/06/11 05:35:17;;;;;;;11.88;2.70;;;20.60;79.20;;;;;;5052235;28;20478;-69
2022/06/11 05:37:42;;;;;;;;;;;20.60;79.20;;;;;;5052998;28;20017;-69
2022/06/11 05:40:09;;;;;;;10.35;2.92;;;20.60;78.90;;;;;;5052542;28;20416;-69
2022/06/11 05:42:35;;;;;;;12.30;4.13;;;20.60;79.40;;;;;;5052295;28;20047;-69
2022/06/11 05:45:00;;;;;;;12.65;2.92;;;20.60;79.20;;;;;;5056257;28;20481;-69
2022/06/11 05:47:27;;;;;;;13.80;3.50;;;20.60;79.40;;;;;;5055710;28;20036;-69
2022/06/11 05:49:59;;;;;;;14.63;3.35;;;20.60;79.50;;;;;;5055889;28;20021;-70
2022/06/11 05:52:31;;;;;;;13.90;3.67;;;20.60;79.60;;;;;;5055845;28;20029;-69
2022/06/11 05:54:57;;;;;;;14.23;3.35;;;20.60;80.10;;;;;;5055381;28;20021;-70
2022/06/11 05:57:26;;;;;;;13.25;3.80;;;20.60;80.20;;;;;;5055709;28;20032;-69
2022/06/11 06:00:00;;;;;;;11.35;3.65;;;20.60;80.20;;;;;;5055813;28;20104;-69
2022/06/11 06:02:27;;;;;;;13.95;2.85;;;20.60;80.20;;;;;;5055206;28;20029;-70
2022/06/11 06:04:53;;;;;;;17.08;3.83;;;20.60;80.50;;;;;;5055542;28;20025;-70
2022/06/11 06:07:18;;;;;;;14.15;3.40;;;20.60;80.30;;;;;;5055607;28;20032;-69
2022/06/11 06:09:44;;;;;;;17.45;4.25;;;20.70;81.10;;;;;;5055322;28;20494;-70
2022/06/11 06:12:09;;;;;;;13.70;3.38;;;20.80;81.60;;;;;;5055493;28;20069;-69
2022/06/11 06:14:35;;;;;;;13.32;3.90;;;20.90;81.60;;;;;;5055312;28;20033;-70
2022/06/11 06:17:01;;;;;;;16.90;3.15;;;21.00;81.40;;;;;;5053297;28;20037;-70
2022/06/11 06:19:26;;;;;;;12.38;3.20;;;21.00;80.70;;;;;;5055099;28;20078;-69
2022/06/11 06:21:52;;;;;;;12.63;3.72;;;21.00;81.40;;;;;;5055356;28;20052;-69
2022/06/11 06:24:17;;;;;;;13.70;3.13;;;21.00;80.50;;;;;;5055154;28;20044;-69
2022/06/11 06:26:43;;;;;;;9.38;3.10;;;21.10;80.30;;;;;;5055106;28;20505;-69
2022/06/11 06:29:09;;;;;;;12.98;3.33;;;21.10;80.30;;;;;;5055102;28;20025;-69
2022/06/11 06:31:34;;;;;;;10.45;3.05;;;21.10;80.60;;;;;;5054979;28;20032;-68
2022/06/11 06:34:01;;;;;;;5.40;1.50;;;21.10;81.60;;;;;;5055197;28;20561;-69
2022/06/11 06:36:28;;;;;;;5.90;1.40;;;21.10;83.40;;;;;;5054520;28;20025;-69
2022/06/11 06:38:55;;;;;;;8.48;2.28;;;21.20;84.40;;;;;;5052885;28;20017;-69
2022/06/11 06:41:21;;;;;;;10.70;3.00;;;21.20;83.90;;;;;;5044592;28;20031;-68
2022/06/11 06:43:48;;;;;;;14.25;3.50;;;21.20;83.20;;;;;;5049802;28;20021;-69
2022/06/11 06:46:15;;;;;;;10.43;2.90;;;21.20;82.80;;;;;;5050144;28;20031;-69
2022/06/11 06:48:43;;;;;;;12.32;3.70;;;21.30;82.80;;;;;;5040461;28;20057;-69
2022/06/11 06:51:09;;;;;;;10.77;2.95;;;21.30;82.70;;;;;;5046566;28;20453;-69
2022/06/11 06:53:37;;;;;;;10.65;3.72;;;21.30;82.50;;;;;;5042154;28;20021;-68
2022/06/11 06:56:03;;;;;;;15.82;4.15;;;21.30;82.70;;;;;;5037938;28;20170;-69
2022/06/11 06:58:29;;;;;;;10.85;3.65;;;21.30;82.80;;;;;;5049934;28;20433;-69
2022/06/11 07:00:55;;;;;;;12.90;4.18;;;21.30;82.60;;;;;;5046338;28;20013;-69
2022/06/11 07:03:21;;;;;;;12.10;3.58;;;21.30;82.80;;;;;;5050420;28;20017;-69
2022/06/11 07:05:48;;;;;;;11.43;3.13;;;21.30;82.80;;;;;;5050439;28;20452;-69
2022/06/11 07:08:15;;;;;;;63.20;8.82;;;21.30;82.60;;;;;;5053322;28;20100;-67
2022/06/11 07:10:48;;;;;;;19.50;4.53;;;21.40;82.60;;;;;;5053355;28;20021;-67
2022/06/11 07:13:15;;;;;;;14.18;3.65;;;21.40;82.90;;;;;;5048437;28;20074;-66
2022/06/11 07:15:42;;;;;;;12.02;3.63;;;21.40;83.00;;;;;;5053440;28;20021;-65
2022/06/11 07:18:28;;;;;;;13.35;3.42;;;21.50;83.00;;;;;;5054004;28;20059;-66
2022/06/11 07:20:57;;;;;;;9.88;2.90;;;21.50;82.90;;;;;;5052022;28;20071;-66
2022/06/11 07:23:35;;;;;;;9.70;3.05;;;21.50;82.80;;;;;;5044481;28;20439;-66
2022/06/11 07:26:04;;;;;;;12.43;3.70;;;21.50;82.90;;;;;;5033226;28;20375;-66
2022/06/11 07:28:42;;;;;;;11.75;3.08;;;21.50;82.80;;;;;;5042782;28;20058;-65
2022/06/11 07:31:07;;;;;;;11.75;3.40;;;21.60;83.00;;;;;;5052735;28;20046;-66
2022/06/11 07:33:33;;;;;;;12.85;3.65;;;21.60;82.90;;;;;;5052771;28;20029;-67
2022/06/11 07:35:59;;;;;;;11.48;3.03;;;21.60;82.90;;;;;;5053309;28;20470;-64
2022/06/11 07:38:24;;;;;;;14.85;3.38;;;21.70;82.90;;;;;;5052317;28;20035;-64
2022/06/11 07:40:50;;;;;;;12.15;2.95;;;21.70;82.50;;;;;;5039567;28;20025;-65
2022/06/11 07:43:16;;;;;;;11.93;3.15;;;21.80;82.10;;;;;;5041791;28;20021;-66
2022/06/11 07:45:43;;;;;;;12.57;3.10;;;21.80;81.80;;;;;;5048291;28;20492;-65
2022/06/11 07:48:10;;;;;;;13.52;3.72;;;21.90;81.10;;;;;;5040481;28;20044;-67
2022/06/11 07:50:42;;;;;;;15.00;3.08;;;21.90;80.30;;;;;;5047325;28;20025;-66
2022/06/11 07:53:09;;;;;;;14.23;3.10;;;21.90;80.70;;;;;;5052566;28;20029;-66
2022/06/11 07:55:37;;;;;;;13.25;3.45;;;21.90;80.90;;;;;;5048075;28;20099;-66
2022/06/11 07:58:04;;;;;;;13.88;3.75;;;21.90;80.60;;;;;;5049193;28;20024;-67
2022/06/11 08:00:32;;;;;;;9.82;2.92;;;21.90;80.30;;;;;;5042486;28;20027;-67
2022/06/11 08:02:58;;;;;;;8.02;2.42;;;22.00;79.80;;;;;;5050284;28;20060;-67
2022/06/11 08:05:24;;;;;;;12.27;3.47;;;22.00;79.70;;;;;;5031622;28;20108;-68
2022/06/11 08:07:51;;;;;;;10.27;2.67;;;22.00;79.40;;;;;;5048608;28;20112;-67
2022/06/11 08:10:18;;;;;;;9.77;3.05;;;22.00;79.20;;;;;;5051755;28;20043;-67
2022/06/11 08:12:43;;;;;;;10.43;2.65;;;22.00;79.20;;;;;;5052105;28;20031;-67
2022/06/11 08:15:10;;;;;;;11.00;2.90;;;22.10;78.90;;;;;;5038527;28;20107;-66
2022/06/11 08:17:35;;;;;;;11.43;3.20;;;22.10;78.80;;;;;;5043139;28;20033;-66
2022/06/11 08:20:03;;;;;;;9.40;2.78;;;22.10;78.70;;;;;;5050292;28;20469;-67
2022/06/11 08:22:30;;;;;;;11.57;3.35;;;22.20;78.60;;;;;;5050875;28;20036;-67
2022/06/11 08:24:56;;;;;;;10.55;2.72;;;22.20;78.80;;;;;;5051219;28;20021;-68
2022/06/11 08:27:22;;;;;;;8.88;2.45;;;22.20;78.30;;;;;;5049139;28;20367;-67
2022/06/11 08:29:47;;;;;;;13.02;3.45;;;22.20;78.00;;;;;;5050823;28;20025;-67
2022/06/11 08:32:13;;;;;;;12.15;3.05;;;22.20;78.30;;;;;;5050632;28;20033;-66
2022/06/11 08:34:43;;;;;;;13.25;3.15;;;22.30;77.70;;;;;;5026403;28;20418;-67
2022/06/11 08:37:09;;;;;;;10.80;2.80;;;22.30;77.20;;;;;;5025441;28;20037;-67
2022/06/11 08:39:36;;;;;;;10.02;3.30;;;22.20;77.00;;;;;;5049533;28;20082;-66
2022/06/11 08:42:02;;;;;;;13.30;3.20;;;22.30;77.30;;;;;;5047936;28;20040;-66
2022/06/11 08:44:31;;;;;;;9.57;2.85;;;22.20;76.80;;;;;;5047060;28;20029;-67
2022/06/11 08:47:01;;;;;;;11.95;2.63;;;22.30;76.80;;;;;;5049147;28;20033;-67
2022/06/11 08:49:46;;;;;;;9.45;2.45;;;22.40;76.60;;;;;;5045300;28;20014;-66
2022/06/11 08:52:14;;;;;;;11.27;2.90;;;22.40;76.60;;;;;;5040425;28;20022;-67
2022/06/11 08:54:43;;;;;;;15.85;3.90;;;22.40;76.70;;;;;;5042212;28;20063;-67
2022/06/11 08:57:49;;;;;;;10.40;2.55;;;22.40;75.90;;;;;;5045920;28;20021;-67
2022/06/11 09:00:21;;;;;;;9.18;2.80;;;22.40;76.80;;;;;;5022621;28;20045;-67
2022/06/11 09:03:06;;;;;;;;;;;22.40;76.30;;;;;;5049523;28;20632;-67
2022/06/11 09:05:51;;;;;;;10.57;2.83;;;22.40;76.20;;;;;;5043444;28;19915;-67
2022/06/11 09:08:35;;;;;;;9.88;2.95;;;22.50;76.30;;;;;;5036685;28;20025;-67
2022/06/11 09:11:16;;;;;;;10.15;2.50;;;22.50;76.10;;;;;;5042201;28;20040;-67
2022/06/11 09:13:59;;;;;;;8.98;2.67;;;22.50;76.00;;;;;;5045592;28;20163;-67
2022/06/11 09:16:51;;;;;;;11.43;2.88;;;22.50;75.50;;;;;;5035478;28;20033;-67
2022/06/11 09:19:28;;;;;;;7.17;1.93;;;22.50;75.50;;;;;;5044412;28;20024;-67
2022/06/11 09:22:21;;;;;;;11.57;2.75;;;22.50;75.00;;;;;;5036365;28;20018;-67
2022/06/11 09:25:15;;;;;;;9.13;2.38;;;22.50;74.70;;;;;;5048147;28;20037;-68
2022/06/11 09:28:20;;;;;;;11.40;2.88;;;22.50;74.70;;;;;;5048387;28;20033;-67
2022/06/11 09:30:57;;;;;;;11.45;2.30;;;22.60;74.70;;;;;;5046799;28;20060;-69
2022/06/11 09:33:29;;;;;;;11.50;3.22;;;22.60;74.60;;;;;;5042919;28;20061;-68
2022/06/11 09:36:02;;;;;;;10.60;2.25;;;22.50;74.70;;;;;;5042565;28;20025;-69
2022/06/11 09:38:33;;;;;;;7.63;2.38;;;22.50;74.80;;;;;;5046906;28;20032;-67
2022/06/11 09:41:20;;;;;;;12.82;3.17;;;22.60;74.90;;;;;;5046162;28;20402;-67
2022/06/11 09:44:23;;;;;;;7.70;2.00;;;22.70;74.40;;;;;;5039156;28;20021;-67
2022/06/11 09:47:08;;;;;;;8.80;2.28;;;22.60;74.10;;;;;;5047096;28;20029;-67
2022/06/11 09:49:37;;;;;;;12.93;2.70;;;22.70;73.80;;;;;;5035189;28;20031;-69
2022/06/11 09:52:26;;;;;;;10.82;2.75;;;22.70;73.90;;;;;;5047719;28;20033;-70
2022/06/11 09:55:21;;;;;;;9.43;2.40;;;22.70;73.70;;;;;;5044097;28;20036;-67
2022/06/11 09:58:07;;;;;;;8.82;2.38;;;22.70;73.90;;;;;;5038330;28;20016;-68
2022/06/11 10:00:57;;;;;;;13.85;2.15;;;22.70;74.20;;;;;;5033200;28;20052;-66
2022/06/11 10:06:10;;;;;;;8.38;1.83;;;22.80;74.40;;;;;;5047831;28;20478;-68
2022/06/11 10:08:49;;;;;;;9.30;2.28;;;22.80;74.50;;;;;;5036553;28;20025;-67
2022/06/11 10:11:24;;;;;;;8.80;2.65;;;22.70;74.30;;;;;;5048893;28;20098;-68
2022/06/11 10:14:28;;;;;;;12.00;2.53;;;22.80;74.00;;;;;;5038278;28;20053;-69
2022/06/11 10:16:48;;;;;;;8.07;1.92;;;22.80;74.10;;;;;;5040013;28;20053;-67
2022/06/11 10:19:37;;;;;;;8.40;2.13;;;22.80;74.00;;;;;;5047476;28;20021;-67
2022/06/11 10:22:31;;;;;;;7.97;2.20;;;22.80;73.90;;;;;;5046303;28;20036;-68
2022/06/11 10:25:14;;;;;;;8.23;2.25;;;22.80;74.20;;;;;;5041749;28;20240;-66
2022/06/11 10:27:42;;;;;;;;;;;22.80;74.30;;;;;;5041377;28;20041;-68
2022/06/11 10:30:43;;;;;;;11.57;2.67;;;22.90;75.10;;;;;;5045769;28;20013;-67
2022/06/11 10:33:22;;;;;;;12.57;2.00;;;22.80;76.10;;;;;;5027537;28;20046;-67
2022/06/11 10:35:54;;;;;;;9.30;2.53;;;22.80;78.00;;;;;;5038533;28;20501;-67
2022/06/11 10:38:35;;;;;;;10.98;3.17;;;22.90;77.80;;;;;;5044340;28;20025;-66
2022/06/11 10:41:04;;;;;;;11.63;2.38;;;22.90;78.10;;;;;;5048226;28;20035;-67
2022/06/11 10:43:34;;;;;;;12.50;2.45;;;22.90;78.20;;;;;;5043730;28;20118;-67
2022/06/11 10:46:01;;;;;;;11.95;2.58;;;22.90;77.90;;;;;;5048850;28;20067;-67
2022/06/11 10:48:32;;;;;;;10.18;2.88;;;23.00;77.90;;;;;;5047783;28;20090;-68
2022/06/11 10:51:00;;;;;;;10.52;2.70;;;22.90;77.70;;;;;;5045815;28;20385;-68
2022/06/11 10:53:30;;;;;;;10.77;2.35;;;22.90;77.20;;;;;;5044616;28;20025;-68
2022/06/11 10:56:06;;;;;;;13.48;2.97;;;23.00;77.00;;;;;;5040637;28;20029;-67
2022/06/11 10:58:40;;;;;;;9.65;2.33;;;23.00;76.90;;;;;;5046127;28;20052;-68
2022/06/11 11:01:12;;;;;;;9.80;2.70;;;23.00;76.40;;;;;;5047340;28;20052;-67
2022/06/11 11:03:48;;;;;;;10.05;2.15;;;23.00;76.10;;;;;;5043070;28;20031;-69
2022/06/11 11:06:35;;;;;;;12.75;2.90;;;23.00;75.90;;;;;;5040825;28;20056;-69
2022/06/11 11:09:10;;;;;;;8.85;2.55;;;23.00;75.80;;;;;;5043101;28;20417;-70
2022/06/11 11:11:47;;;;;;;10.38;2.60;;;23.00;75.60;;;;;;5048669;28;20091;-69
2022/06/11 11:14:18;;;;;;;10.57;2.58;;;23.10;75.20;;;;;;5050407;28;20104;-68
2022/06/11 11:16:48;;;;;;;6.93;2.42;;;23.10;74.50;;;;;;5047415;28;20051;-68
2022/06/11 11:19:25;;;;;;;9.70;2.30;;;23.10;74.80;;;;;;5047154;28;20028;-68
2022/06/11 11:22:05;;;;;;;9.43;2.15;;;23.10;74.50;;;;;;5046374;28;20378;-68
2022/06/11 11:24:34;;;;;;;8.57;2.10;;;23.10;73.90;;;;;;5044474;28;20522;-69
2022/06/11 11:27:09;;;;;;;9.32;2.42;;;23.10;73.80;;;;;;5044321;28;20465;-67
2022/06/11 11:29:38;;;;;;;8.00;2.35;;;23.20;73.90;;;;;;5043585;28;20096;-69
2022/06/11 11:32:24;;;;;;;16.63;2.72;;;23.20;74.20;;;;;;5044353;28;20064;-66
2022/06/11 11:34:50;;;;;;;7.45;1.63;;;23.20;74.70;;;;;;5046302;28;20021;-67
2022/06/11 11:37:25;;;;;;;10.52;2.42;;;23.10;74.70;;;;;;5046386;28;20029;-68
2022/06/11 11:39:57;;;;;;;14.70;3.00;;;23.20;74.70;;;;;;5041229;28;20386;-68
2022/06/11 11:42:31;;;;;;;9.70;2.50;;;23.20;75.00;;;;;;5046193;28;20048;-67
2022/06/11 11:44:59;;;;;;;9.27;2.15;;;23.10;75.00;;;;;;5050221;28;20093;-67
2022/06/11 11:47:31;;;;;;;10.48;2.20;;;23.10;75.00;;;;;;5038366;28;20029;-66
2022/06/11 11:50:19;;;;;;;8.70;2.38;;;23.10;74.60;;;;;;5037104;28;20028;-66
2022/06/11 11:52:52;;;;;;;8.65;2.20;;;23.10;74.50;;;;;;5046503;28;20037;-66
2022/06/11 11:55:29;;;;;;;7.22;2.20;;;23.20;73.70;;;;;;5048478;28;20028;-66
2022/06/11 11:58:06;;;;;;;7.38;1.60;;;23.20;74.40;;;;;;5030506;28;20029;-66
2022/06/11 12:00:45;;;;;;;7.47;1.80;;;23.20;74.40;;;;;;5045361;28;20501;-67
2022/06/11 12:03:39;;;;;;;6.40;1.85;;;23.20;74.30;;;;;;5049111;28;20029;-68
2022/06/11 12:06:07;;;;;;;10.25;2.08;;;23.20;74.20;;;;;;5047066;28;20473;-67
2022/06/11 12:08:49;;;;;;;13.48;2.20;;;23.30;74.40;;;;;;5034192;28;20051;-67
2022/06/11 12:11:35;;;;;;;;;;;23.30;74.50;;;;;;5046998;28;20037;-67
2022/06/11 12:14:11;;;;;;;9.23;2.22;;;23.30;74.40;;;;;;5049784;28;19923;-67
2022/06/11 12:16:41;;;;;;;9.38;2.00;;;23.40;74.50;;;;;;5037486;28;20040;-68
2022/06/11 12:19:19;;;;;;;10.68;2.03;;;23.30;74.90;;;;;;5047423;28;20021;-69
2022/06/11 12:21:54;;;;;;;8.60;1.80;;;23.40;74.50;;;;;;5049487;28;20107;-67
2022/06/11 12:24:28;;;;;;;9.73;1.92;;;23.40;74.40;;;;;;5038829;28;20684;-69
2022/06/11 12:27:00;;;;;;;7.22;1.80;;;23.40;74.60;;;;;;5044589;28;20498;-68
2022/06/11 12:29:37;;;;;;;5.65;1.80;;;23.30;74.60;;;;;;5043178;28;20031;-68
2022/06/11 12:32:19;;;;;;;7.25;2.10;;;23.40;74.70;;;;;;5046340;28;20043;-69
2022/06/11 12:34:45;;;;;;;5.50;1.40;;;23.40;74.60;;;;;;5030220;28;20037;-69
2022/06/11 12:37:36;;;;;;;7.32;1.88;;;23.40;74.60;;;;;;5045719;28;20029;-69
2022/06/11 12:40:10;;;;;;;7.32;2.55;;;23.40;74.40;;;;;;5042646;28;20033;-68
2022/06/11 12:42:43;;;;;;;9.85;1.83;;;23.40;74.30;;;;;;5043233;28;20043;-67
2022/06/11 12:45:38;;;;;;;8.73;1.75;;;23.40;74.50;;;;;;5042120;28;20040;-69
2022/06/11 12:48:33;;;;;;;7.38;1.83;;;23.40;74.40;;;;;;5040309;28;20102;-68
2022/06/11 12:51:07;;;;;;;6.30;1.75;;;23.40;73.90;;;;;;5049556;28;20029;-69
2022/06/11 12:53:39;;;;;;;7.47;1.90;;;23.50;74.10;;;;;;5049438;28;20456;-71
2022/06/11 12:56:36;;;;;;;7.22;2.10;;;23.50;74.00;;;;;;5041742;28;20041;-70
2022/06/11 12:59:37;;;;;;;8.27;1.67;;;23.50;73.90;;;;;;5038665;28;20037;-70
2022/06/11 13:02:26;;;;;;;9.52;2.40;;;23.50;73.80;;;;;;5048307;28;20378;-70
2022/06/11 13:05:23;;;;;;;9.23;1.98;;;23.50;73.80;;;;;;5033825;28;20095;-71
2022/06/11 13:08:13;;;;;;;7.22;1.55;;;23.50;73.90;;;;;;5037839;28;20037;-70
2022/06/11 13:10:53;;;;;;;6.95;1.75;;;23.50;74.00;;;;;;5045557;28;20124;-70
2022/06/11 13:13:40;;;;;;;9.88;2.67;;;23.50;74.20;;;;;;5039039;28;20021;-70
2022/06/11 13:16:27;;;;;;;12.60;1.90;;;23.50;74.10;;;;;;5040402;28;20029;-70